sensor_id;sensor_type;location;lat;lon;timestamp;P1;durP1;ratioP1;P2;durP2;ratioP2
59824;SDS011;45703;50.898;6.054;2023-07-29T00:02:03;4.80;;;2.05;;
59824;SDS011;45703;50.898;6.054;2023-07-29T00:04:29;4.82;;;1.83;;
59824;SDS011;45703;50.898;6.054;2023-07-29T00:06:55;5.30;;;2.00;;
59824;SDS011;45703;50.898;6.054;2023-07-29T00:09:20;4.93;;;1.98;;
59824;SDS011;45703;50.898;6.054;2023-07-29T00:11:48;4.85;;;1.80;;
59824;SDS011;45703;50.898;6.054;2023-07-29T00:14:13;5.25;;;2.00;;
59824;SDS011;45703;50.898;6.054;2023-07-29T00:16:39;5.03;;;1.73;;
59824;SDS011;45703;50.898;6.054;2023-07-29T00:19:04;4.75;;;1.70;;
59824;SDS011;45703;50.898;6.054;2023-07-29T00:21:30;5.38;;;1.80;;
59824;SDS011;45703;50.898;6.054;2023-07-29T00:23:55;5.03;;;1.67;;
59824;SDS011;45703;50.898;6.054;2023-07-29T00:26:26;4.90;;;1.60;;
59824;SDS011;45703;50.898;6.054;2023-07-29T00:28:54;5.00;;;1.60;;
59824;SDS011;45703;50.898;6.054;2023-07-29T00:31:22;4.40;;;1.58;;
59824;SDS011;45703;50.898;6.054;2023-07-29T00:33:48;5.05;;;1.50;;
59824;SDS011;45703;50.898;6.054;2023-07-29T00:36:13;4.93;;;1.55;;
59824;SDS011;45703;50.898;6.054;2023-07-29T00:38:38;4.90;;;1.70;;
59824;SDS011;45703;50.898;6.054;2023-07-29T00:41:04;3.72;;;1.30;;
59824;SDS011;45703;50.898;6.054;2023-07-29T00:43:30;3.85;;;1.33;;
59824;SDS011;45703;50.898;6.054;2023-07-29T00:45:55;5.20;;;1.50;;
59824;SDS011;45703;50.898;6.054;2023-07-29T00:48:22;4.88;;;1.45;;
59824;SDS011;45703;50.898;6.054;2023-07-29T00:50:49;4.25;;;1.40;;
59824;SDS011;45703;50.898;6.054;2023-07-29T00:53:15;3.92;;;1.20;;
59824;SDS011;45703;50.898;6.054;2023-07-29T00:55:40;4.30;;;1.25;;
59824;SDS011;45703;50.898;6.054;2023-07-29T00:58:06;4.07;;;1.30;;
59824;SDS011;45703;50.898;6.054;2023-07-29T01:00:32;3.72;;;1.25;;
59824;SDS011;45703;50.898;6.054;2023-07-29T01:02:57;4.25;;;1.20;;
59824;SDS011;45703;50.898;6.054;2023-07-29T01:05:23;4.40;;;1.50;;
59824;SDS011;45703;50.898;6.054;2023-07-29T01:07:56;3.95;;;1.30;;
59824;SDS011;45703;50.898;6.054;2023-07-29T01:13:37;4.50;;;1.35;;
59824;SDS011;45703;50.898;6.054;2023-07-29T01:16:23;3.97;;;1.10;;
59824;SDS011;45703;50.898;6.054;2023-07-29T01:18:55;3.42;;;1.00;;
59824;SDS011;45703;50.898;6.054;2023-07-29T01:21:21;4.82;;;1.38;;
59824;SDS011;45703;50.898;6.054;2023-07-29T01:23:47;3.85;;;1.27;;
59824;SDS011;45703;50.898;6.054;2023-07-29T01:26:12;3.42;;;1.05;;
59824;SDS011;45703;50.898;6.054;2023-07-29T01:28:38;4.32;;;1.30;;
59824;SDS011;45703;50.898;6.054;2023-07-29T01:31:12;4.22;;;1.30;;
59824;SDS011;45703;50.898;6.054;2023-07-29T01:33:47;4.05;;;1.20;;
59824;SDS011;45703;50.898;6.054;2023-07-29T01:36:18;4.13;;;1.42;;
59824;SDS011;45703;50.898;6.054;2023-07-29T01:38:48;6.45;;;1.55;;
59824;SDS011;45703;50.898;6.054;2023-07-29T01:41:15;5.15;;;1.40;;
59824;SDS011;45703;50.898;6.054;2023-07-29T01:43:42;4.53;;;1.30;;
59824;SDS011;45703;50.898;6.054;2023-07-29T01:46:12;5.63;;;1.40;;
59824;SDS011;45703;50.898;6.054;2023-07-29T01:48:39;5.55;;;1.70;;
59824;SDS011;45703;50.898;6.054;2023-07-29T01:51:05;5.10;;;1.55;;
59824;SDS011;45703;50.898;6.054;2023-07-29T01:53:31;4.22;;;1.35;;
59824;SDS011;45703;50.898;6.054;2023-07-29T01:55:57;4.55;;;1.58;;
59824;SDS011;45703;50.898;6.054;2023-07-29T01:58:22;5.88;;;1.67;;
59824;SDS011;45703;50.898;6.054;2023-07-29T02:00:48;6.45;;;1.80;;
59824;SDS011;45703;50.898;6.054;2023-07-29T02:03:13;5.05;;;1.50;;
59824;SDS011;45703;50.898;6.054;2023-07-29T02:05:39;4.53;;;1.50;;
59824;SDS011;45703;50.898;6.054;2023-07-29T02:08:04;4.82;;;1.80;;
59824;SDS011;45703;50.898;6.054;2023-07-29T02:10:30;6.30;;;2.00;;
59824;SDS011;45703;50.898;6.054;2023-07-29T02:12:55;5.03;;;1.70;;
59824;SDS011;45703;50.898;6.054;2023-07-29T02:15:20;5.00;;;1.70;;
59824;SDS011;45703;50.898;6.054;2023-07-29T02:17:46;6.32;;;1.92;;
59824;SDS011;45703;50.898;6.054;2023-07-29T02:20:11;5.00;;;2.13;;
59824;SDS011;45703;50.898;6.054;2023-07-29T02:22:37;5.53;;;2.03;;
59824;SDS011;45703;50.898;6.054;2023-07-29T02:25:02;5.60;;;2.20;;
59824;SDS011;45703;50.898;6.054;2023-07-29T02:27:28;6.50;;;2.00;;
59824;SDS011;45703;50.898;6.054;2023-07-29T02:29:54;5.85;;;2.08;;
59824;SDS011;45703;50.898;6.054;2023-07-29T02:32:19;5.68;;;2.25;;
59824;SDS011;45703;50.898;6.054;2023-07-29T02:34:45;5.72;;;2.45;;
59824;SDS011;45703;50.898;6.054;2023-07-29T02:37:10;6.07;;;2.53;;
59824;SDS011;45703;50.898;6.054;2023-07-29T02:39:36;8.27;;;2.53;;
59824;SDS011;45703;50.898;6.054;2023-07-29T02:42:02;6.18;;;2.70;;
59824;SDS011;45703;50.898;6.054;2023-07-29T02:44:28;6.47;;;2.28;;
59824;SDS011;45703;50.898;6.054;2023-07-29T02:46:53;5.95;;;2.50;;
59824;SDS011;45703;50.898;6.054;2023-07-29T02:49:20;6.90;;;2.80;;
59824;SDS011;45703;50.898;6.054;2023-07-29T02:51:46;6.95;;;2.40;;
59824;SDS011;45703;50.898;6.054;2023-07-29T02:54:12;5.82;;;2.40;;
59824;SDS011;45703;50.898;6.054;2023-07-29T02:56:37;5.80;;;2.30;;
59824;SDS011;45703;50.898;6.054;2023-07-29T02:59:03;6.57;;;2.95;;
59824;SDS011;45703;50.898;6.054;2023-07-29T03:01:28;5.72;;;2.45;;
59824;SDS011;45703;50.898;6.054;2023-07-29T03:03:53;7.32;;;2.50;;
59824;SDS011;45703;50.898;6.054;2023-07-29T03:06:19;5.45;;;2.47;;
59824;SDS011;45703;50.898;6.054;2023-07-29T03:08:44;7.10;;;2.90;;
59824;SDS011;45703;50.898;6.054;2023-07-29T03:11:10;6.13;;;2.72;;
59824;SDS011;45703;50.898;6.054;2023-07-29T03:13:38;8.82;;;3.05;;
59824;SDS011;45703;50.898;6.054;2023-07-29T03:16:10;5.60;;;2.50;;
59824;SDS011;45703;50.898;6.054;2023-07-29T03:18:37;8.40;;;2.63;;
59824;SDS011;45703;50.898;6.054;2023-07-29T03:21:03;6.28;;;2.72;;
59824;SDS011;45703;50.898;6.054;2023-07-29T03:23:30;5.68;;;2.53;;
59824;SDS011;45703;50.898;6.054;2023-07-29T03:25:58;6.00;;;2.80;;
59824;SDS011;45703;50.898;6.054;2023-07-29T03:28:28;6.30;;;2.60;;
59824;SDS011;45703;50.898;6.054;2023-07-29T03:30:55;7.07;;;2.63;;
59824;SDS011;45703;50.898;6.054;2023-07-29T03:33:21;6.00;;;2.20;;
59824;SDS011;45703;50.898;6.054;2023-07-29T03:35:46;6.63;;;2.20;;
59824;SDS011;45703;50.898;6.054;2023-07-29T03:38:12;6.95;;;2.22;;
59824;SDS011;45703;50.898;6.054;2023-07-29T03:40:38;5.68;;;2.10;;
59824;SDS011;45703;50.898;6.054;2023-07-29T03:43:04;5.50;;;1.90;;
59824;SDS011;45703;50.898;6.054;2023-07-29T03:45:29;5.90;;;1.90;;
59824;SDS011;45703;50.898;6.054;2023-07-29T03:47:54;5.60;;;1.90;;
59824;SDS011;45703;50.898;6.054;2023-07-29T03:50:20;6.55;;;2.28;;
59824;SDS011;45703;50.898;6.054;2023-07-29T03:52:46;5.70;;;2.20;;
59824;SDS011;45703;50.898;6.054;2023-07-29T03:55:11;5.20;;;1.95;;
59824;SDS011;45703;50.898;6.054;2023-07-29T03:57:36;5.47;;;2.10;;
59824;SDS011;45703;50.898;6.054;2023-07-29T04:00:02;7.28;;;2.17;;
59824;SDS011;45703;50.898;6.054;2023-07-29T04:02:28;6.00;;;1.90;;
59824;SDS011;45703;50.898;6.054;2023-07-29T04:04:53;6.22;;;2.20;;
59824;SDS011;45703;50.898;6.054;2023-07-29T04:07:19;5.53;;;1.83;;
59824;SDS011;45703;50.898;6.054;2023-07-29T04:09:44;6.32;;;1.88;;
59824;SDS011;45703;50.898;6.054;2023-07-29T04:12:10;6.47;;;1.90;;
59824;SDS011;45703;50.898;6.054;2023-07-29T04:14:35;5.50;;;1.80;;
59824;SDS011;45703;50.898;6.054;2023-07-29T04:17:00;5.40;;;1.63;;
59824;SDS011;45703;50.898;6.054;2023-07-29T04:19:26;5.50;;;1.48;;
59824;SDS011;45703;50.898;6.054;2023-07-29T04:21:51;5.50;;;1.60;;
59824;SDS011;45703;50.898;6.054;2023-07-29T04:24:17;4.90;;;1.52;;
59824;SDS011;45703;50.898;6.054;2023-07-29T04:26:45;5.90;;;1.70;;
59824;SDS011;45703;50.898;6.054;2023-07-29T04:29:10;5.30;;;1.50;;
59824;SDS011;45703;50.898;6.054;2023-07-29T04:31:36;5.43;;;1.70;;
59824;SDS011;45703;50.898;6.054;2023-07-29T04:34:09;5.88;;;1.63;;
59824;SDS011;45703;50.898;6.054;2023-07-29T04:36:35;4.95;;;1.65;;
59824;SDS011;45703;50.898;6.054;2023-07-29T04:39:01;5.05;;;1.88;;
59824;SDS011;45703;50.898;6.054;2023-07-29T04:41:26;5.38;;;1.60;;
59824;SDS011;45703;50.898;6.054;2023-07-29T04:43:51;4.82;;;1.58;;
59824;SDS011;45703;50.898;6.054;2023-07-29T04:46:17;5.35;;;1.50;;
59824;SDS011;45703;50.898;6.054;2023-07-29T04:48:43;5.10;;;1.65;;
59824;SDS011;45703;50.898;6.054;2023-07-29T04:51:08;6.72;;;1.63;;
59824;SDS011;45703;50.898;6.054;2023-07-29T04:53:34;6.68;;;1.67;;
59824;SDS011;45703;50.898;6.054;2023-07-29T04:56:01;5.38;;;1.58;;
59824;SDS011;45703;50.898;6.054;2023-07-29T04:58:27;5.78;;;1.60;;
59824;SDS011;45703;50.898;6.054;2023-07-29T05:00:54;5.43;;;1.60;;
59824;SDS011;45703;50.898;6.054;2023-07-29T05:03:20;5.65;;;1.45;;
59824;SDS011;45703;50.898;6.054;2023-07-29T05:05:46;6.90;;;2.60;;
59824;SDS011;45703;50.898;6.054;2023-07-29T05:08:11;4.97;;;1.50;;
59824;SDS011;45703;50.898;6.054;2023-07-29T05:10:36;6.55;;;1.70;;
59824;SDS011;45703;50.898;6.054;2023-07-29T05:13:02;5.90;;;1.67;;
59824;SDS011;45703;50.898;6.054;2023-07-29T05:15:27;5.63;;;1.42;;
59824;SDS011;45703;50.898;6.054;2023-07-29T05:17:53;4.75;;;1.33;;
59824;SDS011;45703;50.898;6.054;2023-07-29T05:20:18;6.55;;;1.63;;
59824;SDS011;45703;50.898;6.054;2023-07-29T05:22:44;7.53;;;1.50;;
59824;SDS011;45703;50.898;6.054;2023-07-29T05:25:09;5.60;;;1.52;;
59824;SDS011;45703;50.898;6.054;2023-07-29T05:27:34;5.25;;;1.63;;
59824;SDS011;45703;50.898;6.054;2023-07-29T05:30:02;5.38;;;1.85;;
59824;SDS011;45703;50.898;6.054;2023-07-29T05:32:55;7.10;;;1.90;;
59824;SDS011;45703;50.898;6.054;2023-07-29T05:35:21;5.10;;;2.10;;
59824;SDS011;45703;50.898;6.054;2023-07-29T05:37:46;6.10;;;1.80;;
59824;SDS011;45703;50.898;6.054;2023-07-29T05:40:14;6.43;;;1.65;;
59824;SDS011;45703;50.898;6.054;2023-07-29T05:42:42;6.03;;;2.08;;
59824;SDS011;45703;50.898;6.054;2023-07-29T05:45:07;6.25;;;1.83;;
59824;SDS011;45703;50.898;6.054;2023-07-29T05:47:33;5.07;;;1.60;;
59824;SDS011;45703;50.898;6.054;2023-07-29T05:50:01;5.85;;;2.00;;
59824;SDS011;45703;50.898;6.054;2023-07-29T05:52:29;6.32;;;2.20;;
59824;SDS011;45703;50.898;6.054;2023-07-29T05:54:57;6.20;;;1.98;;
59824;SDS011;45703;50.898;6.054;2023-07-29T05:57:23;6.60;;;1.95;;
59824;SDS011;45703;50.898;6.054;2023-07-29T05:59:48;6.30;;;2.35;;
59824;SDS011;45703;50.898;6.054;2023-07-29T06:02:14;6.30;;;2.20;;
59824;SDS011;45703;50.898;6.054;2023-07-29T06:04:39;6.47;;;2.20;;
59824;SDS011;45703;50.898;6.054;2023-07-29T06:07:05;7.90;;;2.40;;
59824;SDS011;45703;50.898;6.054;2023-07-29T06:09:31;7.90;;;2.20;;
59824;SDS011;45703;50.898;6.054;2023-07-29T06:11:59;6.72;;;1.90;;
59824;SDS011;45703;50.898;6.054;2023-07-29T06:14:24;6.85;;;2.05;;
59824;SDS011;45703;50.898;6.054;2023-07-29T06:17:01;7.75;;;2.17;;
59824;SDS011;45703;50.898;6.054;2023-07-29T06:20:00;6.72;;;1.98;;
59824;SDS011;45703;50.898;6.054;2023-07-29T06:22:25;6.80;;;1.90;;
59824;SDS011;45703;50.898;6.054;2023-07-29T06:24:51;6.13;;;2.10;;
59824;SDS011;45703;50.898;6.054;2023-07-29T06:27:16;5.45;;;1.88;;
59824;SDS011;45703;50.898;6.054;2023-07-29T06:29:41;6.13;;;2.05;;
59824;SDS011;45703;50.898;6.054;2023-07-29T06:32:07;6.25;;;1.80;;
59824;SDS011;45703;50.898;6.054;2023-07-29T06:34:32;5.97;;;1.83;;
59824;SDS011;45703;50.898;6.054;2023-07-29T06:36:58;6.07;;;1.95;;
59824;SDS011;45703;50.898;6.054;2023-07-29T06:39:23;7.07;;;2.08;;
59824;SDS011;45703;50.898;6.054;2023-07-29T06:41:51;5.43;;;1.83;;
59824;SDS011;45703;50.898;6.054;2023-07-29T06:44:19;5.15;;;1.67;;
59824;SDS011;45703;50.898;6.054;2023-07-29T06:46:49;5.88;;;1.80;;
59824;SDS011;45703;50.898;6.054;2023-07-29T06:49:14;5.72;;;1.60;;
59824;SDS011;45703;50.898;6.054;2023-07-29T06:51:40;4.43;;;1.40;;
59824;SDS011;45703;50.898;6.054;2023-07-29T06:54:05;5.00;;;1.50;;
59824;SDS011;45703;50.898;6.054;2023-07-29T06:56:31;4.65;;;1.38;;
59824;SDS011;45703;50.898;6.054;2023-07-29T06:58:56;4.60;;;1.30;;
59824;SDS011;45703;50.898;6.054;2023-07-29T07:01:28;5.95;;;1.45;;
59824;SDS011;45703;50.898;6.054;2023-07-29T07:04:04;4.80;;;1.30;;
59824;SDS011;45703;50.898;6.054;2023-07-29T07:06:32;6.10;;;1.70;;
59824;SDS011;45703;50.898;6.054;2023-07-29T07:08:59;4.00;;;1.20;;
59824;SDS011;45703;50.898;6.054;2023-07-29T07:11:25;6.25;;;1.52;;
59824;SDS011;45703;50.898;6.054;2023-07-29T07:17:07;6.20;;;1.80;;
59824;SDS011;45703;50.898;6.054;2023-07-29T07:19:48;5.55;;;1.50;;
59824;SDS011;45703;50.898;6.054;2023-07-29T07:29:20;5.65;;;1.50;;
59824;SDS011;45703;50.898;6.054;2023-07-29T07:32:06;5.38;;;1.52;;
59824;SDS011;45703;50.898;6.054;2023-07-29T07:34:41;5.40;;;1.40;;
59824;SDS011;45703;50.898;6.054;2023-07-29T07:37:13;6.15;;;1.67;;
59824;SDS011;45703;50.898;6.054;2023-07-29T07:39:43;4.85;;;1.27;;
59824;SDS011;45703;50.898;6.054;2023-07-29T07:42:14;5.60;;;1.48;;
59824;SDS011;45703;50.898;6.054;2023-07-29T07:44:47;4.75;;;1.30;;
59824;SDS011;45703;50.898;6.054;2023-07-29T07:50:19;5.80;;;1.70;;
59824;SDS011;45703;50.898;6.054;2023-07-29T07:52:51;4.97;;;1.30;;
59824;SDS011;45703;50.898;6.054;2023-07-29T07:55:55;4.00;;;1.25;;
59824;SDS011;45703;50.898;6.054;2023-07-29T07:58:33;4.30;;;1.20;;
59824;SDS011;45703;50.898;6.054;2023-07-29T08:01:08;5.30;;;1.30;;
59824;SDS011;45703;50.898;6.054;2023-07-29T08:03:49;5.55;;;1.50;;
59824;SDS011;45703;50.898;6.054;2023-07-29T08:06:20;4.25;;;1.25;;
59824;SDS011;45703;50.898;6.054;2023-07-29T08:08:58;4.80;;;1.30;;
59824;SDS011;45703;50.898;6.054;2023-07-29T08:12:14;4.93;;;1.30;;
59824;SDS011;45703;50.898;6.054;2023-07-29T08:14:52;5.93;;;1.65;;
59824;SDS011;45703;50.898;6.054;2023-07-29T08:17:38;4.82;;;1.40;;
59824;SDS011;45703;50.898;6.054;2023-07-29T08:24:42;5.65;;;1.40;;
59824;SDS011;45703;50.898;6.054;2023-07-29T08:27:24;4.85;;;1.63;;
59824;SDS011;45703;50.898;6.054;2023-07-29T08:30:18;6.10;;;1.67;;
59824;SDS011;45703;50.898;6.054;2023-07-29T08:32:49;4.95;;;1.20;;
59824;SDS011;45703;50.898;6.054;2023-07-29T08:35:42;5.28;;;1.30;;
59824;SDS011;45703;50.898;6.054;2023-07-29T08:38:18;4.95;;;1.35;;
59824;SDS011;45703;50.898;6.054;2023-07-29T08:40:57;4.88;;;1.40;;
59824;SDS011;45703;50.898;6.054;2023-07-29T08:43:31;4.97;;;1.40;;
59824;SDS011;45703;50.898;6.054;2023-07-29T08:45:58;4.55;;;1.20;;
59824;SDS011;45703;50.898;6.054;2023-07-29T08:48:43;5.65;;;1.48;;
59824;SDS011;45703;50.898;6.054;2023-07-29T08:51:09;4.18;;;1.25;;
59824;SDS011;45703;50.898;6.054;2023-07-29T08:53:36;4.43;;;1.40;;
59824;SDS011;45703;50.898;6.054;2023-07-29T08:56:02;4.32;;;1.23;;
59824;SDS011;45703;50.898;6.054;2023-07-29T08:58:31;5.07;;;1.38;;
59824;SDS011;45703;50.898;6.054;2023-07-29T09:00:56;5.25;;;1.35;;
59824;SDS011;45703;50.898;6.054;2023-07-29T09:03:22;4.43;;;1.27;;
59824;SDS011;45703;50.898;6.054;2023-07-29T09:05:50;5.18;;;1.50;;
59824;SDS011;45703;50.898;6.054;2023-07-29T09:08:18;5.47;;;1.33;;
59824;SDS011;45703;50.898;6.054;2023-07-29T09:10:47;5.13;;;1.33;;
59824;SDS011;45703;50.898;6.054;2023-07-29T09:13:26;5.65;;;1.38;;
59824;SDS011;45703;50.898;6.054;2023-07-29T09:15:55;3.80;;;1.10;;
59824;SDS011;45703;50.898;6.054;2023-07-29T09:18:42;4.55;;;1.30;;
59824;SDS011;45703;50.898;6.054;2023-07-29T09:21:12;5.95;;;1.40;;
59824;SDS011;45703;50.898;6.054;2023-07-29T09:23:41;3.92;;;1.10;;
59824;SDS011;45703;50.898;6.054;2023-07-29T09:26:53;5.45;;;1.33;;
59824;SDS011;45703;50.898;6.054;2023-07-29T09:30:02;4.97;;;1.40;;
59824;SDS011;45703;50.898;6.054;2023-07-29T09:46:36;4.40;;;1.15;;
59824;SDS011;45703;50.898;6.054;2023-07-29T09:49:05;5.10;;;1.30;;
59824;SDS011;45703;50.898;6.054;2023-07-29T09:51:34;5.00;;;1.55;;
59824;SDS011;45703;50.898;6.054;2023-07-29T09:54:03;4.63;;;1.30;;
59824;SDS011;45703;50.898;6.054;2023-07-29T09:56:28;4.82;;;1.50;;
59824;SDS011;45703;50.898;6.054;2023-07-29T09:58:57;4.75;;;1.25;;
59824;SDS011;45703;50.898;6.054;2023-07-29T10:01:23;5.53;;;1.40;;
59824;SDS011;45703;50.898;6.054;2023-07-29T10:03:49;4.35;;;1.33;;
59824;SDS011;45703;50.898;6.054;2023-07-29T10:06:15;4.32;;;1.27;;
59824;SDS011;45703;50.898;6.054;2023-07-29T10:08:42;5.18;;;1.35;;
59824;SDS011;45703;50.898;6.054;2023-07-29T10:11:11;5.30;;;1.50;;
59824;SDS011;45703;50.898;6.054;2023-07-29T10:13:37;4.38;;;1.40;;
59824;SDS011;45703;50.898;6.054;2023-07-29T10:16:03;4.32;;;1.40;;
59824;SDS011;45703;50.898;6.054;2023-07-29T10:18:30;4.38;;;1.27;;
59824;SDS011;45703;50.898;6.054;2023-07-29T10:20:57;5.38;;;1.45;;
59824;SDS011;45703;50.898;6.054;2023-07-29T10:23:27;4.05;;;1.10;;
59824;SDS011;45703;50.898;6.054;2023-07-29T10:28:48;4.63;;;1.40;;
59824;SDS011;45703;50.898;6.054;2023-07-29T10:31:18;3.38;;;1.08;;
59824;SDS011;45703;50.898;6.054;2023-07-29T10:33:45;4.65;;;1.30;;
59824;SDS011;45703;50.898;6.054;2023-07-29T10:36:11;4.65;;;1.25;;
59824;SDS011;45703;50.898;6.054;2023-07-29T10:38:37;4.68;;;1.52;;
59824;SDS011;45703;50.898;6.054;2023-07-29T10:41:03;4.82;;;1.33;;
59824;SDS011;45703;50.898;6.054;2023-07-29T10:43:32;4.45;;;1.25;;
59824;SDS011;45703;50.898;6.054;2023-07-29T10:51:34;5.50;;;1.67;;
59824;SDS011;45703;50.898;6.054;2023-07-29T10:54:02;5.15;;;1.50;;
59824;SDS011;45703;50.898;6.054;2023-07-29T10:56:33;4.93;;;1.55;;
59824;SDS011;45703;50.898;6.054;2023-07-29T10:59:02;4.75;;;1.58;;
59824;SDS011;45703;50.898;6.054;2023-07-29T11:01:52;5.28;;;1.40;;
59824;SDS011;45703;50.898;6.054;2023-07-29T11:17:37;5.38;;;1.70;;
59824;SDS011;45703;50.898;6.054;2023-07-29T11:20:04;4.95;;;1.65;;
59824;SDS011;45703;50.898;6.054;2023-07-29T11:22:32;4.70;;;1.63;;
59824;SDS011;45703;50.898;6.054;2023-07-29T11:24:58;5.20;;;1.50;;
59824;SDS011;45703;50.898;6.054;2023-07-29T11:27:23;5.55;;;1.85;;
59824;SDS011;45703;50.898;6.054;2023-07-29T11:29:48;5.00;;;1.60;;
59824;SDS011;45703;50.898;6.054;2023-07-29T11:32:14;5.38;;;1.58;;
59824;SDS011;45703;50.898;6.054;2023-07-29T11:34:41;5.45;;;1.60;;
59824;SDS011;45703;50.898;6.054;2023-07-29T11:37:08;5.03;;;1.50;;
59824;SDS011;45703;50.898;6.054;2023-07-29T11:39:39;5.20;;;1.77;;
59824;SDS011;45703;50.898;6.054;2023-07-29T11:42:14;5.28;;;1.55;;
59824;SDS011;45703;50.898;6.054;2023-07-29T11:44:40;5.20;;;1.60;;
59824;SDS011;45703;50.898;6.054;2023-07-29T11:47:06;5.25;;;1.60;;
59824;SDS011;45703;50.898;6.054;2023-07-29T11:49:35;5.60;;;1.57;;
59824;SDS011;45703;50.898;6.054;2023-07-29T11:52:03;5.38;;;1.65;;
59824;SDS011;45703;50.898;6.054;2023-07-29T11:54:28;4.50;;;1.38;;
59824;SDS011;45703;50.898;6.054;2023-07-29T11:56:55;4.80;;;1.38;;
59824;SDS011;45703;50.898;6.054;2023-07-29T11:59:21;4.80;;;1.38;;
59824;SDS011;45703;50.898;6.054;2023-07-29T12:01:46;5.35;;;1.42;;
59824;SDS011;45703;50.898;6.054;2023-07-29T12:04:12;5.65;;;1.50;;
59824;SDS011;45703;50.898;6.054;2023-07-29T12:06:38;4.63;;;1.40;;
59824;SDS011;45703;50.898;6.054;2023-07-29T12:09:04;4.53;;;1.40;;
59824;SDS011;45703;50.898;6.054;2023-07-29T12:11:30;5.05;;;1.48;;
59824;SDS011;45703;50.898;6.054;2023-07-29T12:13:57;4.93;;;1.48;;
59824;SDS011;45703;50.898;6.054;2023-07-29T12:16:22;5.30;;;1.45;;
59824;SDS011;45703;50.898;6.054;2023-07-29T12:18:49;5.05;;;1.50;;
59824;SDS011;45703;50.898;6.054;2023-07-29T12:21:15;5.75;;;1.73;;
59824;SDS011;45703;50.898;6.054;2023-07-29T12:23:42;4.93;;;1.67;;
59824;SDS011;45703;50.898;6.054;2023-07-29T12:26:08;4.68;;;1.50;;
59824;SDS011;45703;50.898;6.054;2023-07-29T12:28:33;4.53;;;1.42;;
59824;SDS011;45703;50.898;6.054;2023-07-29T12:30:58;4.65;;;1.50;;
59824;SDS011;45703;50.898;6.054;2023-07-29T12:33:34;5.03;;;1.60;;
59824;SDS011;45703;50.898;6.054;2023-07-29T12:36:01;5.18;;;1.65;;
59824;SDS011;45703;50.898;6.054;2023-07-29T12:38:27;5.35;;;1.58;;
59824;SDS011;45703;50.898;6.054;2023-07-29T12:40:54;5.60;;;1.55;;
59824;SDS011;45703;50.898;6.054;2023-07-29T12:43:22;5.55;;;1.70;;
59824;SDS011;45703;50.898;6.054;2023-07-29T12:45:58;5.32;;;1.65;;
59824;SDS011;45703;50.898;6.054;2023-07-29T12:48:26;4.80;;;1.40;;
59824;SDS011;45703;50.898;6.054;2023-07-29T12:50:51;5.30;;;1.45;;
59824;SDS011;45703;50.898;6.054;2023-07-29T12:53:17;5.65;;;1.70;;
59824;SDS011;45703;50.898;6.054;2023-07-29T12:55:43;5.60;;;1.90;;
59824;SDS011;45703;50.898;6.054;2023-07-29T12:58:08;5.00;;;1.63;;
59824;SDS011;45703;50.898;6.054;2023-07-29T13:00:36;6.32;;;2.05;;
59824;SDS011;45703;50.898;6.054;2023-07-29T13:03:03;5.43;;;1.88;;
59824;SDS011;45703;50.898;6.054;2023-07-29T13:05:30;5.15;;;1.88;;
59824;SDS011;45703;50.898;6.054;2023-07-29T13:07:56;5.15;;;1.70;;
59824;SDS011;45703;50.898;6.054;2023-07-29T13:10:21;5.57;;;2.00;;
59824;SDS011;45703;50.898;6.054;2023-07-29T13:12:47;5.25;;;1.92;;
59824;SDS011;45703;50.898;6.054;2023-07-29T13:15:13;5.50;;;1.95;;
59824;SDS011;45703;50.898;6.054;2023-07-29T13:17:39;5.32;;;1.90;;
59824;SDS011;45703;50.898;6.054;2023-07-29T13:20:05;6.38;;;1.80;;
59824;SDS011;45703;50.898;6.054;2023-07-29T13:22:31;4.88;;;1.70;;
59824;SDS011;45703;50.898;6.054;2023-07-29T13:24:56;5.05;;;1.63;;
59824;SDS011;45703;50.898;6.054;2023-07-29T13:27:21;4.80;;;1.60;;
59824;SDS011;45703;50.898;6.054;2023-07-29T13:29:48;5.05;;;1.67;;
59824;SDS011;45703;50.898;6.054;2023-07-29T13:32:13;4.78;;;1.70;;
59824;SDS011;45703;50.898;6.054;2023-07-29T13:34:39;4.93;;;1.65;;
59824;SDS011;45703;50.898;6.054;2023-07-29T13:37:05;4.53;;;1.48;;
59824;SDS011;45703;50.898;6.054;2023-07-29T13:39:31;4.90;;;1.55;;
59824;SDS011;45703;50.898;6.054;2023-07-29T13:41:56;5.47;;;1.60;;
59824;SDS011;45703;50.898;6.054;2023-07-29T13:44:29;5.38;;;1.90;;
59824;SDS011;45703;50.898;6.054;2023-07-29T13:47:01;4.85;;;1.73;;
59824;SDS011;45703;50.898;6.054;2023-07-29T13:49:32;5.25;;;1.80;;
59824;SDS011;45703;50.898;6.054;2023-07-29T13:51:57;5.05;;;1.80;;
59824;SDS011;45703;50.898;6.054;2023-07-29T13:54:27;5.45;;;1.77;;
59824;SDS011;45703;50.898;6.054;2023-07-29T13:56:55;6.43;;;1.92;;
59824;SDS011;45703;50.898;6.054;2023-07-29T13:59:23;7.85;;;1.85;;
59824;SDS011;45703;50.898;6.054;2023-07-29T14:01:55;4.93;;;1.65;;
59824;SDS011;45703;50.898;6.054;2023-07-29T14:04:21;5.82;;;1.77;;
59824;SDS011;45703;50.898;6.054;2023-07-29T14:06:46;5.43;;;1.80;;
59824;SDS011;45703;50.898;6.054;2023-07-29T14:09:12;5.07;;;1.50;;
59824;SDS011;45703;50.898;6.054;2023-07-29T14:11:37;5.63;;;1.60;;
59824;SDS011;45703;50.898;6.054;2023-07-29T14:14:02;5.85;;;1.77;;
59824;SDS011;45703;50.898;6.054;2023-07-29T14:16:28;4.93;;;1.67;;
59824;SDS011;45703;50.898;6.054;2023-07-29T14:18:53;5.55;;;1.70;;
59824;SDS011;45703;50.898;6.054;2023-07-29T14:21:18;4.82;;;1.60;;
59824;SDS011;45703;50.898;6.054;2023-07-29T14:23:44;5.03;;;1.48;;
59824;SDS011;45703;50.898;6.054;2023-07-29T14:26:09;5.28;;;1.35;;
59824;SDS011;45703;50.898;6.054;2023-07-29T14:28:35;4.55;;;1.40;;
59824;SDS011;45703;50.898;6.054;2023-07-29T14:31:01;4.65;;;1.50;;
59824;SDS011;45703;50.898;6.054;2023-07-29T14:33:26;6.25;;;1.88;;
59824;SDS011;45703;50.898;6.054;2023-07-29T14:35:52;5.10;;;1.73;;
59824;SDS011;45703;50.898;6.054;2023-07-29T14:38:18;5.18;;;1.60;;
59824;SDS011;45703;50.898;6.054;2023-07-29T14:40:43;5.05;;;1.80;;
59824;SDS011;45703;50.898;6.054;2023-07-29T14:43:09;4.72;;;1.70;;
59824;SDS011;45703;50.898;6.054;2023-07-29T14:45:34;5.05;;;1.70;;
59824;SDS011;45703;50.898;6.054;2023-07-29T14:48:00;5.25;;;1.80;;
59824;SDS011;45703;50.898;6.054;2023-07-29T14:50:25;5.70;;;2.15;;
59824;SDS011;45703;50.898;6.054;2023-07-29T14:52:50;5.32;;;1.88;;
59824;SDS011;45703;50.898;6.054;2023-07-29T14:55:16;5.63;;;2.00;;
59824;SDS011;45703;50.898;6.054;2023-07-29T14:57:41;5.32;;;2.03;;
59824;SDS011;45703;50.898;6.054;2023-07-29T15:00:07;7.18;;;2.17;;
59824;SDS011;45703;50.898;6.054;2023-07-29T15:02:33;5.70;;;1.98;;
59824;SDS011;45703;50.898;6.054;2023-07-29T15:04:58;5.40;;;1.85;;
59824;SDS011;45703;50.898;6.054;2023-07-29T15:07:24;5.72;;;2.03;;
59824;SDS011;45703;50.898;6.054;2023-07-29T15:09:49;5.20;;;2.00;;
59824;SDS011;45703;50.898;6.054;2023-07-29T15:12:15;6.10;;;1.90;;
59824;SDS011;45703;50.898;6.054;2023-07-29T15:14:40;5.43;;;1.80;;
59824;SDS011;45703;50.898;6.054;2023-07-29T15:17:06;5.65;;;1.88;;
59824;SDS011;45703;50.898;6.054;2023-07-29T15:19:31;5.20;;;2.00;;
59824;SDS011;45703;50.898;6.054;2023-07-29T15:21:57;5.63;;;2.03;;
59824;SDS011;45703;50.898;6.054;2023-07-29T15:24:22;5.53;;;2.15;;
59824;SDS011;45703;50.898;6.054;2023-07-29T15:26:47;5.32;;;1.70;;
59824;SDS011;45703;50.898;6.054;2023-07-29T15:29:13;5.47;;;1.80;;
59824;SDS011;45703;50.898;6.054;2023-07-29T15:31:39;5.93;;;1.95;;
59824;SDS011;45703;50.898;6.054;2023-07-29T15:34:06;6.03;;;2.08;;
59824;SDS011;45703;50.898;6.054;2023-07-29T15:36:32;4.90;;;1.90;;
59824;SDS011;45703;50.898;6.054;2023-07-29T15:38:57;4.90;;;1.77;;
59824;SDS011;45703;50.898;6.054;2023-07-29T15:41:22;5.90;;;1.90;;
59824;SDS011;45703;50.898;6.054;2023-07-29T15:43:49;6.63;;;2.08;;
59824;SDS011;45703;50.898;6.054;2023-07-29T15:46:14;5.97;;;2.03;;
59824;SDS011;45703;50.898;6.054;2023-07-29T15:48:40;5.10;;;1.90;;
59824;SDS011;45703;50.898;6.054;2023-07-29T15:51:05;6.00;;;1.90;;